createdAt,value
2022-12-17T00:01:23.700Z,100459.00
2022-12-17T00:06:45.457Z,100461.25
2022-12-17T00:12:07.710Z,100457.03
2022-12-17T00:17:29.583Z,100457.67
2022-12-17T00:22:51.523Z,100458.06
2022-12-17T00:28:15.377Z,100470.90
2022-12-17T00:33:37.602Z,100476.23
2022-12-17T00:38:59.643Z,100492.23
2022-12-17T00:44:21.388Z,100501.42
2022-12-17T00:49:43.329Z,100501.42
2022-12-17T00:55:05.387Z,100500.80
2022-12-17T01:00:28.253Z,100502.59
2022-12-17T01:05:50.057Z,100507.01
2022-12-17T01:11:11.952Z,100518.98
2022-12-17T01:16:34.032Z,100521.32
2022-12-17T01:21:56.504Z,100496.30
2022-12-17T01:27:18.268Z,100498.41
2022-12-17T01:32:47.641Z,100510.80
2022-12-17T01:38:09.409Z,100510.36
2022-12-17T01:43:33.685Z,100512.36
2022-12-17T01:48:59.990Z,100510.80
2022-12-17T01:54:23.003Z,100522.13
2022-12-17T01:59:58.012Z,100530.10
2022-12-17T02:05:19.766Z,100540.38
2022-12-17T02:10:47.272Z,100545.64
2022-12-17T02:16:20.031Z,100542.26
2022-12-17T02:21:44.529Z,100540.25
2022-12-17T02:27:15.634Z,100538.35
2022-12-17T02:32:38.382Z,100527.83
2022-12-17T02:38:06.268Z,100523.41
2022-12-17T02:43:30.040Z,100520.64
2022-12-17T02:48:53.938Z,100530.36
2022-12-17T02:54:21.187Z,100532.48
2022-12-17T02:59:43.288Z,100531.95
2022-12-17T03:05:42.761Z,100532.37
2022-12-17T03:10:54.636Z,100535.31
2022-12-17T03:16:28.608Z,100532.16
2022-12-17T03:21:53.286Z,100531.55
2022-12-17T03:27:15.220Z,100531.02
2022-12-17T03:32:37.128Z,100536.10
2022-12-17T03:37:59.168Z,100531.85
2022-12-17T03:43:25.642Z,100538.39
2022-12-17T03:48:47.538Z,100532.88
2022-12-17T03:54:09.389Z,100534.85
2022-12-17T03:59:31.762Z,100547.17
2022-12-17T04:04:53.705Z,100533.73
2022-12-17T04:10:15.631Z,100522.50
2022-12-17T04:15:37.676Z,100537.77
2022-12-17T04:20:59.384Z,100546.70
2022-12-17T04:26:21.275Z,100567.59
2022-12-17T04:31:43.450Z,100584.36
2022-12-17T04:37:05.216Z,100596.42
2022-12-17T04:42:27.156Z,100604.22
2022-12-17T04:47:48.982Z,100615.59
2022-12-17T04:53:19.306Z,100626.14
2022-12-17T04:58:41.169Z,100646.95
2022-12-17T05:04:02.992Z,100662.94
2022-12-17T05:09:24.786Z,100664.83
2022-12-17T05:14:46.550Z,100666.80
2022-12-17T05:20:08.442Z,100672.86
2022-12-17T05:25:31.757Z,100669.70
2022-12-17T05:30:53.626Z,100673.82
2022-12-17T05:36:19.202Z,100670.75
2022-12-17T05:41:41.086Z,100668.96
2022-12-17T05:47:02.991Z,100661.94
2022-12-17T05:52:38.356Z,100671.67
2022-12-17T05:58:00.631Z,100677.23
2022-12-17T06:03:23.626Z,100673.20
2022-12-17T06:08:45.359Z,100677.41
2022-12-17T06:14:07.245Z,100676.10
2022-12-17T06:19:29.013Z,100674.56
2022-12-17T06:24:50.812Z,100685.60
2022-12-17T06:30:18.323Z,100706.70
2022-12-17T06:35:40.741Z,100722.80
2022-12-17T06:41:02.376Z,100731.61
2022-12-17T06:46:24.376Z,100748.76
2022-12-17T06:51:46.215Z,100756.23
2022-12-17T06:57:08.112Z,100763.61
2022-12-17T07:02:30.109Z,100767.11
2022-12-17T07:07:52.516Z,100774.12
2022-12-17T07:13:14.331Z,100770.30
2022-12-17T07:18:36.199Z,100759.94
2022-12-17T07:23:59.603Z,100759.13
2022-12-17T07:29:22.075Z,100771.38
2022-12-17T07:34:43.976Z,100788.25
2022-12-17T07:40:05.906Z,100794.17
2022-12-17T07:45:28.381Z,100803.31
2022-12-17T07:50:50.204Z,100808.55
2022-12-17T07:56:12.091Z,100809.23
2022-12-17T08:01:34.009Z,100815.16
2022-12-17T08:07:01.702Z,100825.85
2022-12-17T08:12:26.071Z,100825.56
2022-12-17T08:17:47.935Z,100831.52
2022-12-17T08:23:09.783Z,100836.08
2022-12-17T08:28:50.070Z,100840.19
2022-12-17T08:34:15.792Z,100847.72
2022-12-17T08:39:37.540Z,100854.41
2022-12-17T08:44:59.528Z,100864.39
2022-12-17T08:50:22.933Z,100869.05
2022-12-17T08:55:44.747Z,100871.88
2022-12-17T09:01:06.447Z,100878.43
2022-12-17T09:06:28.076Z,100884.10
2022-12-17T09:11:50.046Z,100886.70
2022-12-17T09:17:11.933Z,100892.33
2022-12-17T09:22:33.908Z,100901.27
2022-12-17T09:27:55.777Z,100916.45
2022-12-17T09:33:17.626Z,100919.48
2022-12-17T09:38:39.545Z,100918.55
2022-12-17T09:44:14.165Z,100920.03
2022-12-17T09:49:44.258Z,100919.15
2022-12-17T09:55:11.291Z,100919.98
2022-12-17T10:00:47.201Z,100920.08
2022-12-17T10:06:10.235Z,100923.02
2022-12-17T10:11:46.045Z,100929.42
2022-12-17T10:17:11.838Z,100937.04
2022-12-17T10:22:39.142Z,100939.40
2022-12-17T10:28:01.607Z,100952.14
2022-12-17T10:33:46.028Z,100967.14
2022-12-17T10:39:13.634Z,100963.20
2022-12-17T10:44:44.570Z,100966.54
2022-12-17T10:50:16.131Z,100978.61
2022-12-17T10:56:06.272Z,100971.96
2022-12-17T11:01:39.353Z,100976.55
2022-12-17T11:07:12.574Z,100978.93
2022-12-17T11:12:38.725Z,100977.92
2022-12-17T11:18:02.900Z,100974.70
2022-12-17T11:23:37.718Z,100983.00
2022-12-17T11:28:59.828Z,100977.23
2022-12-17T11:34:47.924Z,100980.67
2022-12-17T11:40:17.771Z,100999.42
2022-12-17T11:45:57.566Z,100997.05
2022-12-17T11:51:52.722Z,100993.47
2022-12-17T11:57:39.457Z,101008.86
2022-12-17T12:03:48.051Z,101026.66
2022-12-17T12:09:09.919Z,101025.06
2022-12-17T12:14:50.008Z,101019.71
2022-12-17T12:20:27.163Z,101016.76
2022-12-17T12:25:55.284Z,101028.37
2022-12-17T12:31:55.668Z,101041.21
2022-12-17T12:37:21.329Z,101053.48
2022-12-17T12:42:53.567Z,101062.25
2022-12-17T12:49:02.276Z,101059.19
2022-12-17T12:55:05.607Z,101064.13
2022-12-17T13:01:02.715Z,101059.25
2022-12-17T13:06:06.189Z,101063.10
2022-12-17T13:11:28.983Z,101063.91
2022-12-17T13:16:47.889Z,101065.91
2022-12-17T13:21:51.095Z,101070.09
2022-12-17T13:26:54.407Z,101081.55
2022-12-17T13:32:25.277Z,101078.47
2022-12-17T13:37:34.722Z,101083.37
2022-12-17T13:42:37.948Z,101093.28
2022-12-17T13:47:41.205Z,101098.00
2022-12-17T13:52:44.376Z,101102.35
2022-12-17T13:57:48.945Z,101104.33
2022-12-17T14:02:53.345Z,101101.95
2022-12-17T14:08:00.997Z,101098.90
2022-12-17T14:13:12.564Z,101107.95
2022-12-17T14:18:19.579Z,101122.10
2022-12-17T14:23:33.805Z,101133.16
2022-12-17T14:28:50.279Z,101143.86
2022-12-17T14:34:09.605Z,101156.82
2022-12-17T14:39:31.292Z,101165.69
2022-12-17T14:44:34.789Z,101166.06
2022-12-17T14:49:50.880Z,101170.21
2022-12-17T14:54:58.976Z,101184.10
2022-12-17T15:00:02.264Z,101187.27
2022-12-17T15:05:05.884Z,101195.33
2022-12-17T15:10:12.629Z,101207.45
2022-12-17T15:15:16.614Z,101211.19
2022-12-17T15:20:21.645Z,101218.84
2022-12-17T15:25:24.858Z,101229.20
2022-12-17T15:30:30.864Z,101232.64
2022-12-17T15:35:35.732Z,101234.67
2022-12-17T15:40:39.505Z,101237.58
2022-12-17T15:45:48.534Z,101241.13
2022-12-17T15:50:51.751Z,101250.95
2022-12-17T15:56:00.827Z,101260.10
2022-12-17T16:01:06.534Z,101258.23
2022-12-17T16:06:09.852Z,101267.92
2022-12-17T16:11:16.237Z,101269.56
2022-12-17T16:16:19.412Z,101273.69
2022-12-17T16:21:22.569Z,101273.31
2022-12-17T16:26:25.800Z,101269.40
2022-12-17T16:31:29.074Z,101270.91
2022-12-17T16:36:32.285Z,101276.59
2022-12-17T16:41:35.526Z,101285.02
2022-12-17T16:46:41.891Z,101300.12
2022-12-17T16:51:46.660Z,101313.43
2022-12-17T16:56:51.118Z,101323.50
2022-12-17T17:01:54.316Z,101322.24
2022-12-17T17:06:57.946Z,101332.15
2022-12-17T17:12:01.097Z,101332.91
2022-12-17T17:17:04.284Z,101346.48
2022-12-17T17:22:07.517Z,101350.84
2022-12-17T17:27:10.761Z,101362.61
2022-12-17T17:32:14.305Z,101366.92
2022-12-17T17:37:18.187Z,101373.06
2022-12-17T17:42:21.341Z,101369.29
2022-12-17T17:47:24.484Z,101369.10
2022-12-17T17:52:27.712Z,101374.98
2022-12-17T17:57:30.875Z,101370.56
2022-12-17T18:02:34.115Z,101376.87
2022-12-17T18:07:46.219Z,101393.48
2022-12-17T18:13:08.084Z,101397.13
2022-12-17T18:18:14.648Z,101399.41
2022-12-17T18:23:18.243Z,101408.75
2022-12-17T18:28:21.450Z,101421.88
2022-12-17T18:33:25.659Z,101427.35
2022-12-17T18:38:29.228Z,101437.59
2022-12-17T18:43:32.453Z,101435.09
2022-12-17T18:48:36.266Z,101446.45
2022-12-17T18:53:39.623Z,101450.16
2022-12-17T18:58:44.247Z,101459.05
2022-12-17T19:03:47.814Z,101466.62
2022-12-17T19:08:51.509Z,101464.27
2022-12-17T19:13:54.748Z,101469.63
2022-12-17T19:19:02.303Z,101466.83
2022-12-17T19:24:08.013Z,101473.06
2022-12-17T19:29:13.083Z,101477.84
2022-12-17T19:34:18.243Z,101487.95
2022-12-17T19:39:21.368Z,101486.16
2022-12-17T19:44:34.331Z,101491.44
2022-12-17T19:49:37.579Z,101494.73
2022-12-17T19:54:40.795Z,101504.34
2022-12-17T19:59:43.943Z,101510.02
2022-12-17T20:04:47.155Z,101515.77
2022-12-17T20:09:50.297Z,101522.31
2022-12-17T20:14:53.380Z,101521.11
2022-12-17T20:19:58.014Z,101527.41
2022-12-17T20:25:05.007Z,101524.22
2022-12-17T20:30:08.646Z,101526.29
2022-12-17T20:35:12.001Z,101535.20
2022-12-17T20:40:15.323Z,101546.96
2022-12-17T20:45:18.586Z,101556.66
2022-12-17T20:50:22.119Z,101568.99
2022-12-17T20:55:30.930Z,101565.55
2022-12-17T21:00:34.956Z,101572.82
2022-12-17T21:05:38.066Z,101582.64
2022-12-17T21:10:41.235Z,101586.50
2022-12-17T21:15:50.474Z,101605.10
2022-12-17T21:21:21.509Z,101605.63
2022-12-17T21:26:27.330Z,101609.81
2022-12-17T21:31:38.238Z,101609.44
2022-12-17T21:36:42.006Z,101617.99
2022-12-17T21:42:08.368Z,101632.25
2022-12-17T21:47:11.653Z,101639.47
2022-12-17T21:52:14.823Z,101631.25
2022-12-17T21:57:18.148Z,101625.36
2022-12-17T22:02:21.424Z,101631.71
2022-12-17T22:07:33.162Z,101638.80
2022-12-17T22:13:06.771Z,101640.81
2022-12-17T22:18:09.946Z,101645.94
2022-12-17T22:23:13.180Z,101655.30
2022-12-17T22:28:17.363Z,101657.15
2022-12-17T22:33:30.081Z,101667.75
2022-12-17T22:42:31.025Z,101678.25
2022-12-17T22:44:45.083Z,101685.61
2022-12-17T22:49:29.895Z,101699.86
2022-12-17T22:54:33.049Z,101707.19
2022-12-17T22:59:36.604Z,101708.66
2022-12-17T23:04:39.851Z,101706.77
2022-12-17T23:09:43.106Z,101700.84
2022-12-17T23:14:46.300Z,101699.20
2022-12-17T23:19:49.409Z,101696.52
2022-12-17T23:24:52.595Z,101693.85
2022-12-17T23:29:55.854Z,101697.92
2022-12-17T23:34:58.922Z,101702.80
2022-12-17T23:40:02.526Z,101709.55
2022-12-17T23:45:07.547Z,101721.37
2022-12-17T23:50:11.340Z,101730.85
2022-12-17T23:55:14.634Z,101738.45
